Time;durP1;ratioP1;P1;durP2;ratioP2;P2;SDS_P1;SDS_P2;PMS_P1;PMS_P2;Temp;Humidity;BMP_temperature;BMP_pressure;BME280_temperature;BME280_humidity;BME280_pressure;Samples;Min_cycle;Max_cycle;Signal;HPM_P1;HPM_P2
2022/12/03 00:00:53;;;;;;;9.18;3.75;;;19.80;60.70;;;;;;5030538;28;20088;-63
2022/12/03 00:03:20;;;;;;;10.88;3.35;;;19.80;60.50;;;;;;5029754;28;20082;-66
2022/12/03 00:05:46;;;;;;;7.03;3.55;;;19.70;60.10;;;;;;5029716;28;20082;-67
2022/12/03 00:08:12;;;;;;;12.82;4.40;;;19.60;60.10;;;;;;5030166;28;20081;-66
2022/12/03 00:10:39;;;;;;;11.60;3.20;;;19.60;60.90;;;;;;5030832;28;20570;-64
2022/12/03 00:13:05;;;;;;;12.05;2.55;;;19.60;60.50;;;;;;5029995;28;20103;-65
2022/12/03 00:15:32;;;;;;;9.55;2.40;;;19.20;61.00;;;;;;5030813;28;20098;-63
2022/12/03 00:17:58;;;;;;;12.90;2.42;;;19.70;71.50;;;;;;5029573;28;20077;-68
2022/12/03 00:20:24;;;;;;;9.80;1.63;;;18.80;93.90;;;;;;5032462;28;20204;-66
2022/12/03 00:22:51;;;;;;;7.07;2.30;;;19.50;82.20;;;;;;5031929;28;21577;-64
2022/12/03 00:25:17;;;;;;;9.65;2.85;;;19.30;62.20;;;;;;5030999;28;20101;-66
2022/12/03 00:27:44;;;;;;;16.45;3.35;;;18.70;78.50;;;;;;5030919;28;20070;-66
2022/12/03 00:30:11;;;;;;;10.48;3.08;;;19.20;63.20;;;;;;5029429;28;20180;-65
2022/12/03 00:32:38;;;;;;;13.43;2.70;;;18.30;76.80;;;;;;5029882;28;20189;-66
2022/12/03 00:35:04;;;;;;;13.85;2.90;;;19.00;79.60;;;;;;5030559;28;20073;-65
2022/12/03 00:37:31;;;;;;;36.33;17.48;;;19.00;64.20;;;;;;5030551;28;20082;-65
2022/12/03 00:39:57;;;;;;;25.77;8.65;;;18.80;64.60;;;;;;5030410;28;20055;-66
2022/12/03 00:42:24;;;;;;;18.00;5.00;;;18.80;65.30;;;;;;5030931;28;20155;-66
2022/12/03 00:44:50;;;;;;;19.85;3.63;;;18.80;65.00;;;;;;5030208;28;20486;-66
2022/12/03 00:47:16;;;;;;;33.83;3.60;;;;;;;;;;5028635;28;20136;-64
2022/12/03 00:49:43;;;;;;;32.10;3.53;;;18.70;65.50;;;;;;5027523;28;20178;-66
2022/12/03 00:52:09;;;;;;;36.25;5.18;;;17.90;84.60;;;;;;5029371;28;20161;-67
2022/12/03 00:54:36;;;;;;;41.22;12.55;;;18.50;66.50;;;;;;5026147;28;20081;-67
2022/12/03 00:57:02;;;;;;;28.35;3.40;;;18.50;67.00;;;;;;5027644;28;20074;-64
2022/12/03 00:59:28;;;;;;;29.42;3.50;;;18.40;67.10;;;;;;5028167;28;20527;-65
2022/12/03 01:01:55;;;;;;;26.13;3.35;;;18.30;67.10;;;;;;5028645;28;20104;-66
2022/12/03 01:04:21;;;;;;;51.30;5.55;;;18.30;67.30;;;;;;5027126;28;20478;-66
2022/12/03 01:06:47;;;;;;;48.17;5.60;;;18.30;67.50;;;;;;5028697;28;20077;-66
2022/12/03 01:09:14;;;;;;;48.13;12.57;;;18.20;68.50;;;;;;5028539;28;21300;-67
2022/12/03 01:11:40;;;;;;;36.78;5.10;;;18.20;68.70;;;;;;5029622;28;20434;-67
2022/12/03 01:14:16;;;;;;;35.53;5.47;;;18.10;68.90;;;;;;5030129;28;20070;-66
2022/12/03 01:16:43;;;;;;;23.85;5.63;;;18.00;69.10;;;;;;5030037;28;20515;-66
2022/12/03 01:19:14;;;;;;;27.35;5.07;;;18.00;69.50;;;;;;5034328;28;20207;-65
2022/12/03 01:21:42;;;;;;;29.75;9.13;;;17.90;69.80;;;;;;5033679;28;20495;-64
2022/12/03 01:24:09;;;;;;;31.52;9.07;;;17.80;69.80;;;;;;5033555;28;20081;-65
2022/12/03 01:26:36;;;;;;;44.85;8.10;;;17.80;70.00;;;;;;5033207;28;20089;-65
2022/12/03 01:29:03;;;;;;;37.70;5.75;;;17.70;70.10;;;;;;5033853;28;20094;-65
2022/12/03 01:34:14;;;;;;;36.85;5.07;;;17.70;71.30;;;;;;5032441;28;20589;-66
2022/12/03 01:36:40;;;;;;;39.65;5.57;;;17.60;71.20;;;;;;5033847;28;20152;-67
2022/12/03 01:39:07;;;;;;;23.50;6.72;;;17.50;71.60;;;;;;5034038;28;20523;-67
2022/12/03 01:41:34;;;;;;;31.33;7.82;;;17.50;72.30;;;;;;5032661;28;20466;-67
2022/12/03 01:44:03;;;;;;;30.55;10.95;;;17.50;72.70;;;;;;5034546;28;20132;-67
2022/12/03 01:46:40;;;;;;;42.78;11.55;;;17.40;72.80;;;;;;5032608;28;20074;-64
2022/12/03 01:49:20;;;;;;;32.95;13.02;;;17.40;73.60;;;;;;5033427;28;20188;-66
2022/12/03 01:51:48;;;;;;;36.13;14.25;;;17.30;74.00;;;;;;5033829;28;20153;-66
2022/12/03 01:54:21;;;;;;;37.58;13.75;;;17.30;74.10;;;;;;5034023;28;20457;-66
2022/12/03 01:56:48;;;;;;;34.50;12.40;;;17.20;74.40;;;;;;5033436;28;20081;-65
2022/12/03 01:59:21;;;;;;;32.45;10.60;;;17.20;74.70;;;;;;5032061;28;20089;-66
2022/12/03 02:01:47;;;;;;;31.67;8.52;;;17.20;75.30;;;;;;5030443;28;20543;-66
2022/12/03 02:04:16;;;;;;;26.30;6.65;;;17.10;75.30;;;;;;5031534;28;20078;-66
2022/12/03 02:06:43;;;;;;;22.73;5.80;;;17.10;75.50;;;;;;5031493;28;20077;-67
2022/12/03 02:09:13;;;;;;;26.08;5.35;;;17.00;75.70;;;;;;5031228;28;20140;-67
2022/12/03 02:11:44;;;;;;;30.73;5.47;;;16.90;75.90;;;;;;5031397;28;20081;-66
2022/12/03 02:14:15;;;;;;;33.38;10.30;;;17.00;92.70;;;;;;5029932;28;20076;-67
2022/12/03 02:16:42;;;;;;;29.25;10.25;;;16.80;95.50;;;;;;5031877;28;20077;-63
2022/12/03 02:19:21;;;;;;;39.55;13.70;;;16.90;77.50;;;;;;5033387;28;20081;-68
2022/12/03 02:21:58;;;;;;;47.28;12.23;;;16.80;77.60;;;;;;5032914;28;20077;-66
2022/12/03 02:24:45;;;;;;;50.88;17.50;;;16.70;77.90;;;;;;5033962;28;20078;-66
2022/12/03 02:27:11;;;;;;;53.13;27.00;;;;;;;;;;5033060;28;20085;-64
2022/12/03 02:29:38;;;;;;;61.22;36.67;;;16.70;77.70;;;;;;5031650;28;20114;-64
2022/12/03 02:32:04;;;;;;;62.90;37.58;;;16.60;78.60;;;;;;5032586;28;20124;-67
2022/12/03 02:34:40;;;;;;;53.58;33.17;;;16.60;79.00;;;;;;5031889;28;20090;-68
2022/12/03 02:37:12;;;;;;;37.65;15.85;;;16.50;79.20;;;;;;5032178;28;20076;-67
2022/12/03 02:39:43;;;;;;;37.95;10.38;;;16.50;79.60;;;;;;5033009;28;20073;-66
2022/12/03 02:42:55;;;;;;;25.83;5.90;;;16.50;79.60;;;;;;5033037;28;20481;-68
2022/12/03 02:45:01;;;;;;;27.88;6.32;;;16.40;79.60;;;;;;5019069;28;20090;-65
2022/12/03 02:47:29;;;;;;;21.65;5.13;;;16.40;79.90;;;;;;5032763;28;20077;-66
2022/12/03 02:49:56;;;;;;;29.60;5.85;;;16.30;80.00;;;;;;5032814;28;20090;-66
2022/12/03 02:52:23;;;;;;;22.92;5.35;;;16.30;80.30;;;;;;5033344;28;20074;-67
2022/12/03 02:54:50;;;;;;;31.15;7.65;;;16.30;80.00;;;;;;5032360;28;20579;-65
2022/12/03 02:57:16;;;;;;;31.67;8.75;;;16.20;79.80;;;;;;5032643;28;20062;-67
2022/12/03 02:59:44;;;;;;;35.15;10.23;;;16.20;80.10;;;;;;5032460;28;20074;-64
2022/12/03 03:02:13;;;;;;;31.13;10.88;;;16.20;80.30;;;;;;5032577;28;20112;-65
2022/12/03 03:04:41;;;;;;;36.95;12.02;;;16.10;80.50;;;;;;5032318;28;20569;-67
2022/12/03 03:07:08;;;;;;;36.55;12.65;;;16.10;81.00;;;;;;5032660;28;20127;-65
2022/12/03 03:09:35;;;;;;;33.13;13.40;;;16.00;81.00;;;;;;5030944;28;20093;-67
2022/12/03 03:12:01;;;;;;;36.33;12.25;;;16.00;81.10;;;;;;5032277;28;20086;-67
2022/12/03 03:14:28;;;;;;;25.67;10.75;;;16.00;81.20;;;;;;5032333;28;20416;-65
2022/12/03 03:16:57;;;;;;;26.55;7.57;;;16.00;81.10;;;;;;5032057;28;20090;-69
2022/12/03 03:19:25;;;;;;;26.67;6.78;;;15.90;80.80;;;;;;5031457;28;20069;-66
2022/12/03 03:21:52;;;;;;;34.35;5.45;;;16.00;81.10;;;;;;5033006;28;20074;-67
2022/12/03 03:24:20;;;;;;;22.73;5.20;;;16.00;81.20;;;;;;5032485;28;20078;-67
2022/12/03 03:26:47;;;;;;;27.05;5.40;;;15.90;80.60;;;;;;5032008;28;20539;-65
2022/12/03 03:29:14;;;;;;;24.40;5.30;;;15.90;80.90;;;;;;5031948;28;20181;-64
2022/12/03 03:31:43;;;;;;;28.20;6.28;;;15.90;81.80;;;;;;5030700;28;20080;-66
2022/12/03 03:34:10;;;;;;;34.35;8.82;;;15.90;81.70;;;;;;5030205;28;20557;-64
2022/12/03 03:36:36;;;;;;;22.30;9.80;;;15.90;81.30;;;;;;5030418;28;20120;-65
2022/12/03 03:39:05;;;;;;;35.95;12.07;;;15.90;81.70;;;;;;5030172;28;20089;-66
2022/12/03 03:41:32;;;;;;;32.45;11.60;;;15.90;81.80;;;;;;5029726;28;20081;-67
2022/12/03 03:43:59;;;;;;;35.65;10.68;;;15.80;82.00;;;;;;5028944;28;20151;-66
2022/12/03 03:46:27;;;;;;;25.40;8.18;;;15.80;82.40;;;;;;5028442;28;20081;-68
2022/12/03 03:48:53;;;;;;;30.70;7.82;;;15.80;82.90;;;;;;5029408;28;20163;-67
2022/12/03 03:51:20;;;;;;;21.38;6.20;;;15.80;83.20;;;;;;5029837;28;20675;-66
2022/12/03 03:53:48;;;;;;;28.98;6.80;;;15.70;83.60;;;;;;5029901;28;20077;-66
2022/12/03 03:56:20;;;;;;;22.60;5.43;;;15.70;83.90;;;;;;5030255;28;20570;-65
2022/12/03 03:58:46;;;;;;;14.20;4.93;;;15.70;84.10;;;;;;5031710;28;20074;-65
2022/12/03 04:01:14;;;;;;;21.38;5.03;;;15.60;84.40;;;;;;5031491;28;20080;-65
2022/12/03 04:03:41;;;;;;;20.42;4.65;;;15.60;85.00;;;;;;5031393;28;20078;-66
2022/12/03 04:06:08;;;;;;;24.63;5.10;;;15.60;85.50;;;;;;5031446;28;20098;-65
2022/12/03 04:08:35;;;;;;;16.60;5.15;;;15.60;85.80;;;;;;5031097;28;20074;-66
2022/12/03 04:13:46;;;;;;;15.32;5.07;;;15.50;86.00;;;;;;5030431;28;20081;-65
2022/12/03 04:16:12;;;;;;;;;;;15.40;86.50;;;;;;5031583;28;20073;-63
2022/12/03 04:18:41;;;;;;;19.08;4.82;;;15.40;86.70;;;;;;5031264;28;19957;-66
2022/12/03 04:24:04;;;;;;;20.23;5.72;;;15.40;99.90;;;;;;5031640;28;20089;-66
2022/12/03 04:29:15;;;;;;;27.80;4.93;;;15.20;86.20;;;;;;5031018;28;20041;-65
2022/12/03 04:37:11;;;;;;;33.67;5.43;;;;;;;;;;5031083;28;20077;-66
2022/12/03 04:39:38;;;;;;;21.88;5.43;;;14.80;95.80;;;;;;5030840;28;20069;-66
2022/12/03 04:42:05;;;;;;;13.30;4.50;;;15.50;97.90;;;;;;5030822;28;20149;-66
2022/12/03 04:44:32;;;;;;;13.43;5.10;;;15.10;87.40;;;;;;5030472;28;20081;-67
2022/12/03 04:47:00;;;;;;;13.50;4.65;;;15.10;99.90;;;;;;5030570;28;20080;-69
2022/12/03 04:49:26;;;;;;;25.35;5.90;;;15.10;88.40;;;;;;5030454;28;20133;-67
2022/12/03 04:51:52;;;;;;;;;;;14.80;90.90;;;;;;5030514;28;20105;-67
2022/12/03 04:54:18;;;;;;;20.73;4.82;;;15.00;88.10;;;;;;5030746;28;20465;-64
2022/12/03 04:56:45;;;;;;;19.20;5.45;;;15.00;94.60;;;;;;5029659;28;20156;-67
2022/12/03 04:59:13;;;;;;;21.25;5.10;;;14.90;88.00;;;;;;5029661;28;20489;-68
2022/12/03 05:01:40;;;;;;;24.23;5.80;;;14.90;87.90;;;;;;5029743;28;20090;-62
2022/12/03 05:04:06;;;;;;;21.75;5.13;;;14.90;87.90;;;;;;5028600;28;20074;-62
2022/12/03 05:06:33;;;;;;;25.23;7.40;;;14.80;87.70;;;;;;5028707;28;20070;-60
2022/12/03 05:08:59;;;;;;;;;;;14.90;88.00;;;;;;5030362;28;20114;-62
2022/12/03 05:11:25;;;;;;;27.10;8.43;;;14.90;88.10;;;;;;5029406;28;20016;-59
2022/12/03 05:13:52;;;;;;;23.38;8.48;;;14.90;96.00;;;;;;5029694;28;20219;-61
2022/12/03 05:16:19;;;;;;;21.63;8.40;;;14.90;89.00;;;;;;5028836;28;20082;-64
2022/12/03 05:18:45;;;;;;;;;;;14.90;88.90;;;;;;5029613;28;20073;-64
2022/12/03 05:21:11;;;;;;;32.88;11.82;;;14.90;88.80;;;;;;5029508;28;20426;-64
2022/12/03 05:23:37;;;;;;;;;;;14.80;88.70;;;;;;5030446;28;20528;-63
2022/12/03 05:26:03;;;;;;;29.25;10.23;;;14.70;89.10;;;;;;5029062;28;20003;-63
2022/12/03 05:28:29;;;;;;;;;;;14.70;89.30;;;;;;5030039;28;20104;-63
2022/12/03 05:30:56;;;;;;;35.97;12.68;;;14.70;89.30;;;;;;5029004;28;19985;-65
2022/12/03 05:33:22;;;;;;;;;;;14.60;89.30;;;;;;5027383;28;20139;-61
2022/12/03 05:35:48;;;;;;;42.50;14.18;;;14.70;89.40;;;;;;5027373;28;19966;-64
2022/12/03 05:38:14;;;;;;;;;;;14.60;89.80;;;;;;5028059;28;20116;-66
2022/12/03 05:40:40;;;;;;;32.35;13.13;;;14.60;89.90;;;;;;5027154;28;20040;-63
2022/12/03 05:43:07;;;;;;;;;;;14.70;90.00;;;;;;5026728;28;20538;-65
2022/12/03 05:45:36;;;;;;;29.27;10.85;;;14.70;89.70;;;;;;5026965;28;19957;-65
2022/12/03 05:48:04;;;;;;;38.40;10.70;;;14.90;90.10;;;;;;5027574;28;20518;-66
2022/12/03 05:50:33;;;;;;;29.13;9.48;;;14.60;90.10;;;;;;5028601;28;20153;-65
2022/12/03 05:53:00;;;;;;;27.85;8.63;;;14.60;90.20;;;;;;5029012;28;20067;-64
2022/12/03 05:55:26;;;;;;;30.42;8.93;;;14.70;90.30;;;;;;5029793;28;20084;-63
2022/12/03 05:57:53;;;;;;;26.17;7.97;;;14.60;90.10;;;;;;5029184;28;20062;-64
2022/12/03 06:00:22;;;;;;;23.63;7.30;;;14.60;90.20;;;;;;5029165;28;20077;-65
2022/12/03 06:02:49;;;;;;;35.10;8.50;;;14.60;90.10;;;;;;5028442;28;20165;-66
2022/12/03 06:05:18;;;;;;;30.20;8.32;;;14.60;90.30;;;;;;5032553;28;20608;-64
2022/12/03 06:07:45;;;;;;;23.92;8.50;;;14.50;90.40;;;;;;5032835;28;20077;-65
2022/12/03 06:10:14;;;;;;;23.60;6.82;;;14.50;90.50;;;;;;5032859;28;20117;-64
2022/12/03 06:12:41;;;;;;;22.63;7.55;;;14.50;90.60;;;;;;5032516;28;20074;-63
2022/12/03 06:15:08;;;;;;;19.67;6.53;;;14.50;90.30;;;;;;5032582;28;20140;-63
2022/12/03 06:17:35;;;;;;;17.58;6.35;;;14.40;90.40;;;;;;5031328;28;20074;-63
2022/12/03 06:20:01;;;;;;;;;;;14.40;90.20;;;;;;5032939;28;20070;-64
2022/12/03 06:22:27;;;;;;;18.10;5.68;;;14.40;90.10;;;;;;5032977;28;19964;-63
2022/12/03 06:24:54;;;;;;;20.70;5.88;;;14.40;89.80;;;;;;5033049;28;20593;-63
2022/12/03 06:27:20;;;;;;;;;;;14.40;90.00;;;;;;5036055;28;20131;-63
2022/12/03 06:29:46;;;;;;;17.52;5.70;;;14.40;90.00;;;;;;5032301;28;19973;-64
2022/12/03 06:32:12;;;;;;;;;;;14.40;89.70;;;;;;5032585;28;20074;-63
2022/12/03 06:34:39;;;;;;;18.63;5.40;;;14.40;89.30;;;;;;5031244;28;19958;-64
2022/12/03 06:37:05;;;;;;;17.77;6.18;;;14.30;89.60;;;;;;5032333;28;20086;-64
2022/12/03 06:39:32;;;;;;;16.67;5.28;;;14.30;90.00;;;;;;5029884;28;20161;-63
2022/12/03 06:41:58;;;;;;;20.05;6.22;;;14.30;90.60;;;;;;5032399;28;20085;-66
2022/12/03 06:44:24;;;;;;;;;;;14.30;89.80;;;;;;5032787;28;20136;-63
2022/12/03 06:46:51;;;;;;;12.38;5.47;;;14.20;89.70;;;;;;5026219;28;19966;-63
2022/12/03 06:49:17;;;;;;;;;;;14.20;90.00;;;;;;5029261;28;20155;-62
2022/12/03 06:51:43;;;;;;;20.05;6.60;;;14.20;89.80;;;;;;5047783;28;19981;-64
2022/12/03 06:54:09;;;;;;;;;;;14.20;90.10;;;;;;5031792;28;20070;-62
2022/12/03 06:56:36;;;;;;;20.70;6.30;;;14.10;90.00;;;;;;5031453;28;19980;-64
2022/12/03 06:59:02;;;;;;;24.67;6.68;;;14.10;90.30;;;;;;5032219;28;20561;-63
2022/12/03 07:01:28;;;;;;;;;;;14.10;90.30;;;;;;5031876;28;20074;-63
2022/12/03 07:03:54;;;;;;;25.38;7.35;;;14.10;90.20;;;;;;5032135;28;20031;-66
2022/12/03 07:06:20;;;;;;;;;;;14.10;90.30;;;;;;5032159;28;20463;-65
2022/12/03 07:08:47;;;;;;;22.30;6.40;;;14.10;90.40;;;;;;5031761;28;19958;-65
2022/12/03 07:11:31;;;;;;;22.08;7.72;;;14.00;90.70;;;;;;5031519;28;20097;-63
2022/12/03 07:14:00;;;;;;;29.63;10.07;;;14.00;90.80;;;;;;5030627;28;20066;-66
2022/12/03 07:16:27;;;;;;;23.58;9.45;;;13.90;99.90;;;;;;5030423;28;20459;-62
2022/12/03 07:18:54;;;;;;;29.77;12.30;;;13.90;98.70;;;;;;5031683;28;20510;-64
2022/12/03 07:21:21;;;;;;;40.50;18.40;;;14.00;99.90;;;;;;5031659;28;20078;-64
2022/12/03 07:23:47;;;;;;;;;;;13.90;99.90;;;;;;5032475;28;21725;-65
2022/12/03 07:26:13;;;;;;;51.58;29.05;;;13.90;99.90;;;;;;5032009;28;20373;-63
2022/12/03 07:28:39;;;;;;;;;;;17.40;92.70;;;;;;5031635;28;20438;-64
2022/12/03 07:31:05;;;;;;;34.47;12.68;;;13.30;98.10;;;;;;5031069;28;19966;-63
2022/12/03 07:33:31;;;;;;;;;;;13.90;91.60;;;;;;5030794;28;20082;-63
2022/12/03 07:35:58;;;;;;;33.53;13.27;;;13.90;91.80;;;;;;5031544;28;19961;-65
2022/12/03 07:38:24;;;;;;;;;;;13.90;92.00;;;;;;5031327;28;20082;-63
2022/12/03 07:40:50;;;;;;;37.10;13.77;;;13.90;92.30;;;;;;5031580;28;19958;-63
2022/12/03 07:43:17;;;;;;;35.75;12.50;;;13.90;92.50;;;;;;5029706;28;20105;-64
2022/12/03 07:45:43;;;;;;;;;;;13.90;92.60;;;;;;5031088;28;20509;-63
2022/12/03 07:48:09;;;;;;;32.35;11.52;;;13.90;92.50;;;;;;5030932;28;20460;-64
2022/12/03 07:50:35;;;;;;;;;;;13.90;92.50;;;;;;5031391;28;20086;-64
2022/12/03 07:53:01;;;;;;;34.50;11.05;;;13.80;92.50;;;;;;5030979;28;19957;-63
2022/12/03 07:55:27;;;;;;;;;;;13.70;92.40;;;;;;5032045;28;20074;-64
2022/12/03 07:57:54;;;;;;;30.20;11.50;;;13.70;92.30;;;;;;5030747;28;20088;-63
2022/12/03 08:00:20;;;;;;;;;;;13.70;92.30;;;;;;5031068;28;20135;-66
2022/12/03 08:02:46;;;;;;;38.30;11.35;;;13.60;92.30;;;;;;5030823;28;19957;-65
2022/12/03 08:05:12;;;;;;;;;;;13.60;92.50;;;;;;5031032;28;20090;-63
2022/12/03 08:07:39;;;;;;;45.97;13.10;;;13.60;92.50;;;;;;5030483;28;20000;-65
2022/12/03 08:10:05;;;;;;;;;;;13.60;92.60;;;;;;5031111;28;20554;-65
2022/12/03 08:12:41;;;;;;;49.40;13.20;;;13.70;92.70;;;;;;5030151;28;20512;-65
2022/12/03 08:15:19;;;;;;;46.58;13.98;;;13.70;92.80;;;;;;5029200;28;20301;-65
2022/12/03 08:17:52;;;;;;;60.28;15.40;;;13.60;92.70;;;;;;5030419;28;20074;-63
2022/12/03 08:20:21;;;;;;;52.85;16.77;;;13.60;92.60;;;;;;5030408;28;20066;-66
2022/12/03 08:22:50;;;;;;;66.95;16.98;;;13.50;92.50;;;;;;5030758;28;20077;-64
2022/12/03 08:25:20;;;;;;;61.53;18.15;;;13.50;92.50;;;;;;5029387;28;20204;-64
2022/12/03 08:27:46;;;;;;;75.63;18.17;;;13.40;92.50;;;;;;5029516;28;20527;-63
2022/12/03 08:30:14;;;;;;;;;;;13.40;92.60;;;;;;5029796;28;20116;-64
2022/12/03 08:32:40;;;;;;;;;;;13.40;92.70;;;;;;5029670;28;20042;-64
2022/12/03 08:35:20;;;;;;;66.93;18.08;;;13.50;92.80;;;;;;5030124;28;19957;-63
2022/12/03 08:37:47;;;;;;;72.28;19.50;;;13.50;92.90;;;;;;5030230;28;20061;-63
2022/12/03 08:40:23;;;;;;;57.50;19.75;;;13.50;92.90;;;;;;5030211;28;20069;-61
2022/12/03 08:42:49;;;;;;;55.30;20.48;;;13.30;93.00;;;;;;5029630;28;20156;-65
2022/12/03 08:45:28;;;;;;;71.57;20.67;;;13.30;93.10;;;;;;5030297;28;20074;-63
2022/12/03 08:48:25;;;;;;;69.60;20.92;;;13.20;93.10;;;;;;5029963;28;20478;-63
2022/12/03 08:50:57;;;;;;;63.13;21.35;;;13.20;93.20;;;;;;5018036;28;20109;-64
2022/12/03 08:53:37;;;;;;;65.63;21.20;;;13.10;93.30;;;;;;5030184;28;20074;-63
2022/12/03 08:56:24;;;;;;;56.85;22.65;;;13.20;93.40;;;;;;5030356;28;20097;-63
2022/12/03 08:58:55;;;;;;;67.00;21.38;;;13.10;93.70;;;;;;5029983;28;20611;-66
2022/12/03 09:01:42;;;;;;;63.45;23.17;;;13.30;93.60;;;;;;5028401;28;20200;-66
2022/12/03 09:04:19;;;;;;;64.15;23.42;;;13.60;94.60;;;;;;5030003;28;20550;-66
2022/12/03 09:06:45;;;;;;;;;;;13.10;93.60;;;;;;5029790;28;20141;-63
2022/12/03 09:09:11;;;;;;;73.22;24.52;;;13.20;93.70;;;;;;5029574;28;19977;-66
2022/12/03 09:11:37;;;;;;;;;;;13.30;94.00;;;;;;5029719;28;20074;-65
2022/12/03 09:14:05;;;;;;;75.35;24.23;;;13.30;93.90;;;;;;5030066;28;19964;-67
2022/12/03 09:16:31;;;;;;;60.67;22.05;;;13.30;93.70;;;;;;5029379;28;20161;-65
2022/12/03 09:18:58;;;;;;;76.90;22.70;;;13.20;93.90;;;;;;5029755;28;20606;-66
2022/12/03 09:21:24;;;;;;;;;;;13.20;94.30;;;;;;5030007;28;20090;-64
2022/12/03 09:23:50;;;;;;;71.75;25.75;;;13.20;94.00;;;;;;5029919;28;19958;-64
2022/12/03 09:26:16;;;;;;;;;;;13.20;93.80;;;;;;5030451;28;20546;-64
2022/12/03 09:28:42;;;;;;;62.65;23.00;;;13.20;94.00;;;;;;5029632;28;19962;-65
2022/12/03 09:31:08;;;;;;;;;;;13.20;94.10;;;;;;5029824;28;20101;-66
2022/12/03 09:33:35;;;;;;;59.95;23.17;;;13.50;99.90;;;;;;5029160;28;19958;-65
2022/12/03 09:36:01;;;;;;;;;;;13.20;94.20;;;;;;5029761;28;20089;-66
2022/12/03 09:38:27;;;;;;;48.42;21.90;;;13.20;94.20;;;;;;5031032;28;19957;-66
2022/12/03 09:40:53;;;;;;;;;;;13.00;94.50;;;;;;5033793;28;20184;-68
2022/12/03 09:43:20;;;;;;;56.30;22.52;;;12.80;94.10;;;;;;5033560;28;19964;-66
2022/12/03 09:45:48;;;;;;;64.38;23.98;;;13.30;99.90;;;;;;5033565;28;20092;-68
2022/12/03 09:48:17;;;;;;;67.32;23.45;;;13.20;99.90;;;;;;5032926;28;20110;-65
2022/12/03 09:50:44;;;;;;;68.00;24.27;;;12.80;94.60;;;;;;5032741;28;20090;-65
2022/12/03 09:53:20;;;;;;;72.03;24.20;;;12.90;94.70;;;;;;5033490;28;20100;-65
2022/12/03 09:55:48;;;;;;;73.18;24.48;;;13.70;97.00;;;;;;5032684;28;20089;-67
2022/12/03 09:58:17;;;;;;;68.38;23.10;;;13.60;99.90;;;;;;5033696;28;20208;-67
2022/12/03 10:00:49;;;;;;;66.28;23.48;;;13.00;94.70;;;;;;5032130;28;20151;-64
2022/12/03 10:03:19;;;;;;;60.75;22.38;;;13.00;94.70;;;;;;5033149;28;20093;-64
2022/12/03 10:05:46;;;;;;;62.25;22.25;;;13.00;94.30;;;;;;5033245;28;20094;-66
2022/12/03 10:08:20;;;;;;;53.95;21.67;;;12.60;94.50;;;;;;5032795;28;20096;-66
2022/12/03 10:10:55;;;;;;;54.00;21.60;;;12.90;94.10;;;;;;5032656;28;20086;-66
2022/12/03 10:13:29;;;;;;;42.85;20.65;;;13.00;99.20;;;;;;5032771;28;20081;-65
2022/12/03 10:15:59;;;;;;;51.10;20.45;;;12.80;94.60;;;;;;5032257;28;21826;-64
2022/12/03 10:18:28;;;;;;;55.67;20.08;;;12.80;94.60;;;;;;5031615;28;20082;-64
2022/12/03 10:20:55;;;;;;;57.40;22.45;;;12.80;94.70;;;;;;5031233;28;20132;-64
2022/12/03 10:23:30;;;;;;;49.80;20.67;;;12.50;99.90;;;;;;5032866;28;20096;-64
2022/12/03 10:26:04;;;;;;;53.15;21.63;;;12.70;99.90;;;;;;5032915;28;20081;-64
2022/12/03 10:28:36;;;;;;;49.97;20.25;;;12.60;99.90;;;;;;5032588;28;20479;-64
2022/12/03 10:31:05;;;;;;;44.97;20.98;;;12.70;94.80;;;;;;5031118;28;20082;-66
2022/12/03 10:33:34;;;;;;;59.63;20.60;;;12.90;99.90;;;;;;5032262;28;20066;-65
2022/12/03 10:36:20;;;;;;;54.35;21.55;;;12.70;94.70;;;;;;5032371;28;20066;-65
2022/12/03 10:39:13;;;;;;;47.22;19.90;;;12.70;99.30;;;;;;5032046;28;20093;-64
2022/12/03 10:41:41;;;;;;;47.72;20.35;;;12.50;95.30;;;;;;5031814;28;20595;-65
2022/12/03 10:44:19;;;;;;;51.67;20.35;;;12.40;95.30;;;;;;5031361;28;20069;-66
2022/12/03 10:47:04;;;;;;;51.90;20.23;;;12.10;99.90;;;;;;5032312;28;20119;-65
2022/12/03 10:49:31;;;;;;;48.72;20.02;;;12.60;95.50;;;;;;5030718;28;20198;-65
2022/12/03 10:51:58;;;;;;;51.33;20.45;;;12.60;95.40;;;;;;5032286;28;20077;-66
2022/12/03 10:54:26;;;;;;;48.28;21.67;;;12.60;95.30;;;;;;5032289;28;20066;-64
2022/12/03 10:56:53;;;;;;;46.97;20.00;;;12.60;95.30;;;;;;5032372;28;20070;-64
2022/12/03 10:59:21;;;;;;;;;;;12.60;95.40;;;;;;5032430;28;20431;-64
2022/12/03 11:01:48;;;;;;;56.25;22.00;;;12.40;95.40;;;;;;5031869;28;19957;-63
2022/12/03 11:04:34;;;;;;;51.78;22.08;;;12.50;99.90;;;;;;5032063;28;20081;-65
2022/12/03 11:07:15;;;;;;;52.03;21.20;;;12.40;95.80;;;;;;5031750;28;20153;-63
2022/12/03 11:09:47;;;;;;;49.80;20.13;;;12.40;95.90;;;;;;5031843;28;20089;-66
2022/12/03 11:12:26;;;;;;;48.20;20.67;;;12.50;96.00;;;;;;5030554;28;20070;-66
2022/12/03 11:14:56;;;;;;;49.75;20.10;;;13.00;99.90;;;;;;5031229;28;20066;-65
2022/12/03 11:17:44;;;;;;;42.42;21.05;;;12.90;99.90;;;;;;5030279;28;20164;-65
2022/12/03 11:20:12;;;;;;;53.50;19.67;;;12.50;95.90;;;;;;5031187;28;20139;-66
2022/12/03 11:22:44;;;;;;;46.42;19.98;;;12.40;95.80;;;;;;5031579;28;20147;-66
2022/12/03 11:25:26;;;;;;;45.47;19.58;;;12.40;96.00;;;;;;5029989;28;20543;-64
2022/12/03 11:28:11;;;;;;;50.30;19.27;;;12.20;96.10;;;;;;5031747;28;20089;-66
2022/12/03 11:30:50;;;;;;;78.00;19.92;;;12.20;96.20;;;;;;5030768;28;20180;-64
2022/12/03 11:33:33;;;;;;;52.17;20.13;;;12.20;96.20;;;;;;5030313;28;20113;-64
2022/12/03 11:36:02;;;;;;;44.50;20.30;;;12.90;99.90;;;;;;5031172;28;20070;-65
2022/12/03 11:38:39;;;;;;;48.75;21.42;;;12.10;96.30;;;;;;5029610;28;20113;-66
2022/12/03 11:41:16;;;;;;;48.20;21.17;;;12.10;96.40;;;;;;5031465;28;20070;-66
2022/12/03 11:43:55;;;;;;;51.28;22.23;;;12.00;96.50;;;;;;5030520;28;20075;-64
2022/12/03 11:46:29;;;;;;;51.05;22.00;;;12.20;99.90;;;;;;5030066;28;20093;-64
2022/12/03 11:48:58;;;;;;;49.58;22.00;;;12.60;99.90;;;;;;5030427;28;20121;-67
2022/12/03 11:51:27;;;;;;;54.05;22.58;;;12.30;99.90;;;;;;5029819;28;20086;-67
2022/12/03 11:53:57;;;;;;;53.58;20.52;;;12.00;99.90;;;;;;5029728;28;20104;-65
2022/12/03 11:56:25;;;;;;;49.80;21.38;;;12.90;99.90;;;;;;5031410;28;20501;-64
2022/12/03 11:59:03;;;;;;;52.45;20.15;;;12.40;96.40;;;;;;5031318;28;20490;-67
2022/12/03 12:01:35;;;;;;;43.83;21.40;;;12.80;99.90;;;;;;5030648;28;20555;-65
2022/12/03 12:04:01;;;;;;;53.28;20.75;;;11.90;99.90;;;;;;5030946;28;20559;-65
2022/12/03 12:06:27;;;;;;;;;;;12.30;96.10;;;;;;5069057;22;20125;-65
2022/12/03 12:08:59;;;;;;;55.00;21.02;;;11.90;99.90;;;;;;5049500;28;19957;-65
2022/12/03 12:11:33;;;;;;;54.83;21.63;;;12.30;99.90;;;;;;5049968;28;20501;-64
2022/12/03 12:14:08;;;;;;;48.95;20.17;;;12.40;99.90;;;;;;5049398;28;20072;-67
2022/12/03 12:16:52;;;;;;;45.90;19.70;;;11.70;99.90;;;;;;5049870;28;20092;-64
2022/12/03 12:19:40;;;;;;;41.63;19.60;;;12.30;99.90;;;;;;5046718;28;20431;-65
2022/12/03 12:22:26;;;;;;;38.63;18.63;;;12.50;99.90;;;;;;5048546;28;20077;-66
2022/12/03 12:24:55;;;;;;;54.38;19.45;;;12.20;99.90;;;;;;5050642;28;20077;-65
2022/12/03 12:27:28;;;;;;;47.22;19.33;;;12.10;96.60;;;;;;5049690;28;20075;-66
2022/12/03 12:30:00;;;;;;;43.17;19.77;;;12.20;96.70;;;;;;5050153;28;20097;-64
2022/12/03 12:32:40;;;;;;;42.90;18.35;;;12.30;96.90;;;;;;5049348;28;20090;-65
2022/12/03 12:35:28;;;;;;;46.80;18.25;;;12.30;96.90;;;;;;5048669;28;21072;-64
2022/12/03 12:38:18;;;;;;;46.88;19.05;;;12.30;96.80;;;;;;5049618;28;20526;-64
2022/12/03 12:40:48;;;;;;;47.83;19.02;;;12.20;96.90;;;;;;5048730;28;20155;-64
2022/12/03 12:43:25;;;;;;;39.95;18.35;;;12.10;96.90;;;;;;5048215;28;20076;-65
2022/12/03 12:45:58;;;;;;;43.28;19.55;;;12.10;97.10;;;;;;5047688;28;20093;-65
2022/12/03 12:48:28;;;;;;;40.53;18.58;;;12.10;97.00;;;;;;5049081;28;20538;-66
2022/12/03 12:51:18;;;;;;;42.30;19.42;;;12.20;97.00;;;;;;5048586;28;20089;-66
2022/12/03 12:53:45;;;;;;;40.75;19.65;;;12.10;96.90;;;;;;5047011;28;20085;-65
2022/12/03 12:56:29;;;;;;;42.83;19.23;;;12.20;97.20;;;;;;5048815;28;20160;-63
2022/12/03 12:59:17;;;;;;;41.60;19.13;;;12.30;97.30;;;;;;5049047;28;20077;-64
2022/12/03 13:01:46;;;;;;;45.33;19.60;;;12.20;97.10;;;;;;5048169;28;20081;-65
2022/12/03 13:04:15;;;;;;;40.40;18.02;;;12.30;98.70;;;;;;5046155;28;20089;-65
2022/12/03 13:06:41;;;;;;;50.10;19.80;;;12.20;97.30;;;;;;5048870;28;20093;-66
2022/12/03 13:09:28;;;;;;;42.72;19.42;;;12.30;97.10;;;;;;5049314;28;20481;-68
2022/12/03 13:12:02;;;;;;;38.45;19.65;;;12.40;97.10;;;;;;5048233;28;20088;-67